sensor_id;sensor_type;location;lat;lon;timestamp;P1;durP1;ratioP1;P2;durP2;ratioP2
19653;SDS011;9975;48.046;7.804;2022-08-21T02:04:14;1.73;;;1.63;;
19653;SDS011;9975;48.046;7.804;2022-08-21T02:06:40;2.20;;;2.00;;
19653;SDS011;9975;48.046;7.804;2022-08-21T02:09:06;3.87;;;1.57;;
19653;SDS011;9975;48.046;7.804;2022-08-21T02:11:34;2.03;;;1.93;;
19653;SDS011;9975;48.046;7.804;2022-08-21T02:14:00;2.43;;;1.97;;
19653;SDS011;9975;48.046;7.804;2022-08-21T02:16:26;3.07;;;2.10;;
19653;SDS011;9975;48.046;7.804;2022-08-21T02:18:52;5.33;;;1.73;;
19653;SDS011;9975;48.046;7.804;2022-08-21T02:21:18;2.70;;;1.70;;
19653;SDS011;9975;48.046;7.804;2022-08-21T02:23:43;5.47;;;1.43;;
19653;SDS011;9975;48.046;7.804;2022-08-21T02:26:10;1.73;;;1.60;;
19653;SDS011;9975;48.046;7.804;2022-08-21T02:28:36;5.70;;;1.83;;
19653;SDS011;9975;48.046;7.804;2022-08-21T02:31:03;3.00;;;1.87;;
19653;SDS011;9975;48.046;7.804;2022-08-21T02:33:30;4.93;;;1.67;;
19653;SDS011;9975;48.046;7.804;2022-08-21T02:35:56;3.57;;;1.70;;
19653;SDS011;9975;48.046;7.804;2022-08-21T02:38:23;4.70;;;2.43;;
19653;SDS011;9975;48.046;7.804;2022-08-21T02:40:51;5.50;;;2.00;;
19653;SDS011;9975;48.046;7.804;2022-08-21T02:43:18;2.30;;;2.10;;
19653;SDS011;9975;48.046;7.804;2022-08-21T02:45:45;2.10;;;1.40;;
19653;SDS011;9975;48.046;7.804;2022-08-21T02:48:13;3.87;;;2.30;;
19653;SDS011;9975;48.046;7.804;2022-08-21T02:50:43;2.83;;;1.77;;
19653;SDS011;9975;48.046;7.804;2022-08-21T02:53:11;1.80;;;1.40;;
19653;SDS011;9975;48.046;7.804;2022-08-21T02:55:41;2.57;;;1.90;;
19653;SDS011;9975;48.046;7.804;2022-08-21T02:58:12;8.53;;;1.80;;
19653;SDS011;9975;48.046;7.804;2022-08-21T03:00:39;1.70;;;1.60;;
19653;SDS011;9975;48.046;7.804;2022-08-21T03:03:05;2.70;;;1.73;;
19653;SDS011;9975;48.046;7.804;2022-08-21T03:05:31;1.73;;;1.60;;
19653;SDS011;9975;48.046;7.804;2022-08-21T03:08:00;2.57;;;2.00;;
19653;SDS011;9975;48.046;7.804;2022-08-21T03:10:27;1.87;;;1.50;;
19653;SDS011;9975;48.046;7.804;2022-08-21T03:12:54;8.60;;;1.87;;
19653;SDS011;9975;48.046;7.804;2022-08-21T03:15:20;2.33;;;1.30;;
19653;SDS011;9975;48.046;7.804;2022-08-21T03:17:49;4.33;;;2.47;;
19653;SDS011;9975;48.046;7.804;2022-08-21T03:20:16;5.43;;;1.90;;
19653;SDS011;9975;48.046;7.804;2022-08-21T03:22:43;2.23;;;1.80;;
19653;SDS011;9975;48.046;7.804;2022-08-21T03:25:09;2.10;;;1.57;;
19653;SDS011;9975;48.046;7.804;2022-08-21T03:27:35;1.97;;;1.77;;
19653;SDS011;9975;48.046;7.804;2022-08-21T03:30:02;1.80;;;1.70;;
19653;SDS011;9975;48.046;7.804;2022-08-21T03:32:29;2.10;;;1.90;;
19653;SDS011;9975;48.046;7.804;2022-08-21T03:34:56;3.47;;;1.87;;
19653;SDS011;9975;48.046;7.804;2022-08-21T03:37:22;7.67;;;3.07;;
19653;SDS011;9975;48.046;7.804;2022-08-21T03:39:49;3.30;;;2.10;;
19653;SDS011;9975;48.046;7.804;2022-08-21T03:42:15;2.07;;;1.80;;
19653;SDS011;9975;48.046;7.804;2022-08-21T03:44:41;2.00;;;1.73;;
19653;SDS011;9975;48.046;7.804;2022-08-21T03:47:07;3.70;;;1.63;;
19653;SDS011;9975;48.046;7.804;2022-08-21T03:49:34;3.00;;;2.10;;
19653;SDS011;9975;48.046;7.804;2022-08-21T03:52:00;1.87;;;1.77;;
19653;SDS011;9975;48.046;7.804;2022-08-21T03:54:26;2.53;;;1.67;;
19653;SDS011;9975;48.046;7.804;2022-08-21T03:56:51;1.97;;;1.77;;
19653;SDS011;9975;48.046;7.804;2022-08-21T03:59:17;2.57;;;2.37;;
19653;SDS011;9975;48.046;7.804;2022-08-21T04:01:56;18.83;;;2.27;;
19653;SDS011;9975;48.046;7.804;2022-08-21T04:04:24;2.03;;;1.83;;
19653;SDS011;9975;48.046;7.804;2022-08-21T04:06:50;3.07;;;1.40;;
19653;SDS011;9975;48.046;7.804;2022-08-21T04:09:16;1.57;;;1.33;;
19653;SDS011;9975;48.046;7.804;2022-08-21T04:11:42;2.27;;;1.50;;
19653;SDS011;9975;48.046;7.804;2022-08-21T04:14:08;6.40;;;1.50;;
19653;SDS011;9975;48.046;7.804;2022-08-21T04:16:34;1.40;;;1.30;;
19653;SDS011;9975;48.046;7.804;2022-08-21T04:19:00;3.43;;;1.67;;
19653;SDS011;9975;48.046;7.804;2022-08-21T04:21:26;1.57;;;1.47;;
19653;SDS011;9975;48.046;7.804;2022-08-21T04:23:53;1.60;;;1.20;;
19653;SDS011;9975;48.046;7.804;2022-08-21T04:26:20;7.60;;;1.73;;
19653;SDS011;9975;48.046;7.804;2022-08-21T04:28:46;1.60;;;1.50;;
19653;SDS011;9975;48.046;7.804;2022-08-21T04:31:11;1.53;;;1.43;;
19653;SDS011;9975;48.046;7.804;2022-08-21T04:33:37;2.07;;;1.90;;
19653;SDS011;9975;48.046;7.804;2022-08-21T04:36:03;2.17;;;1.87;;
19653;SDS011;9975;48.046;7.804;2022-08-21T04:38:29;2.07;;;1.53;;
19653;SDS011;9975;48.046;7.804;2022-08-21T04:40:56;2.50;;;2.20;;
19653;SDS011;9975;48.046;7.804;2022-08-21T04:43:22;2.40;;;2.00;;
19653;SDS011;9975;48.046;7.804;2022-08-21T04:45:48;1.50;;;1.40;;
19653;SDS011;9975;48.046;7.804;2022-08-21T04:48:16;6.27;;;1.67;;
19653;SDS011;9975;48.046;7.804;2022-08-21T04:50:47;1.80;;;1.33;;
19653;SDS011;9975;48.046;7.804;2022-08-21T04:53:24;6.60;;;1.83;;
19653;SDS011;9975;48.046;7.804;2022-08-21T04:55:56;1.80;;;1.70;;
19653;SDS011;9975;48.046;7.804;2022-08-21T04:58:27;4.53;;;2.30;;
19653;SDS011;9975;48.046;7.804;2022-08-21T05:00:54;1.83;;;1.70;;
19653;SDS011;9975;48.046;7.804;2022-08-21T05:03:22;2.47;;;1.60;;
19653;SDS011;9975;48.046;7.804;2022-08-21T05:05:48;2.30;;;1.90;;
19653;SDS011;9975;48.046;7.804;2022-08-21T05:08:15;3.50;;;2.10;;
19653;SDS011;9975;48.046;7.804;2022-08-21T05:10:43;2.27;;;1.90;;
19653;SDS011;9975;48.046;7.804;2022-08-21T05:13:09;2.20;;;2.00;;
19653;SDS011;9975;48.046;7.804;2022-08-21T05:15:38;2.30;;;2.10;;
19653;SDS011;9975;48.046;7.804;2022-08-21T05:18:04;1.57;;;1.47;;
19653;SDS011;9975;48.046;7.804;2022-08-21T05:20:30;2.27;;;1.80;;
19653;SDS011;9975;48.046;7.804;2022-08-21T05:22:55;1.93;;;1.80;;
19653;SDS011;9975;48.046;7.804;2022-08-21T05:25:21;2.60;;;1.50;;
19653;SDS011;9975;48.046;7.804;2022-08-21T05:27:47;5.33;;;1.77;;
19653;SDS011;9975;48.046;7.804;2022-08-21T05:30:13;2.30;;;1.57;;
19653;SDS011;9975;48.046;7.804;2022-08-21T05:32:38;5.47;;;2.40;;
19653;SDS011;9975;48.046;7.804;2022-08-21T05:35:05;2.47;;;1.93;;
19653;SDS011;9975;48.046;7.804;2022-08-21T05:37:32;1.70;;;1.60;;
19653;SDS011;9975;48.046;7.804;2022-08-21T05:39:59;2.70;;;1.90;;
19653;SDS011;9975;48.046;7.804;2022-08-21T05:45:03;12.27;;;2.17;;
19653;SDS011;9975;48.046;7.804;2022-08-21T05:47:29;2.30;;;1.80;;
19653;SDS011;9975;48.046;7.804;2022-08-21T05:49:54;7.03;;;1.77;;
19653;SDS011;9975;48.046;7.804;2022-08-21T05:52:20;2.33;;;2.10;;
19653;SDS011;9975;48.046;7.804;2022-08-21T05:54:46;2.63;;;2.03;;
19653;SDS011;9975;48.046;7.804;2022-08-21T05:57:12;4.93;;;3.30;;
19653;SDS011;9975;48.046;7.804;2022-08-21T05:59:37;4.40;;;2.60;;
19653;SDS011;9975;48.046;7.804;2022-08-21T06:02:03;4.33;;;2.47;;
19653;SDS011;9975;48.046;7.804;2022-08-21T06:04:29;5.53;;;4.33;;
19653;SDS011;9975;48.046;7.804;2022-08-21T06:06:55;5.33;;;2.60;;
19653;SDS011;9975;48.046;7.804;2022-08-21T06:09:20;2.87;;;2.20;;
19653;SDS011;9975;48.046;7.804;2022-08-21T06:11:46;5.33;;;2.60;;
19653;SDS011;9975;48.046;7.804;2022-08-21T06:14:15;4.97;;;2.20;;
19653;SDS011;9975;48.046;7.804;2022-08-21T06:16:41;5.20;;;2.83;;
19653;SDS011;9975;48.046;7.804;2022-08-21T06:19:07;5.77;;;2.37;;
19653;SDS011;9975;48.046;7.804;2022-08-21T06:21:33;3.13;;;2.40;;
19653;SDS011;9975;48.046;7.804;2022-08-21T06:23:58;5.37;;;2.20;;
19653;SDS011;9975;48.046;7.804;2022-08-21T06:26:24;4.60;;;2.80;;
19653;SDS011;9975;48.046;7.804;2022-08-21T06:28:50;2.90;;;2.70;;
19653;SDS011;9975;48.046;7.804;2022-08-21T06:31:16;3.03;;;2.70;;
19653;SDS011;9975;48.046;7.804;2022-08-21T06:33:44;3.03;;;2.67;;
19653;SDS011;9975;48.046;7.804;2022-08-21T06:36:11;4.10;;;2.87;;
19653;SDS011;9975;48.046;7.804;2022-08-21T06:38:37;4.87;;;3.00;;
19653;SDS011;9975;48.046;7.804;2022-08-21T06:41:03;3.03;;;2.83;;
19653;SDS011;9975;48.046;7.804;2022-08-21T06:43:29;3.43;;;3.10;;
19653;SDS011;9975;48.046;7.804;2022-08-21T06:45:55;4.40;;;2.77;;
19653;SDS011;9975;48.046;7.804;2022-08-21T06:48:21;10.87;;;2.90;;
19653;SDS011;9975;48.046;7.804;2022-08-21T06:50:47;7.03;;;2.63;;
19653;SDS011;9975;48.046;7.804;2022-08-21T06:53:13;2.90;;;2.13;;
19653;SDS011;9975;48.046;7.804;2022-08-21T06:55:42;4.30;;;2.77;;
19653;SDS011;9975;48.046;7.804;2022-08-21T06:58:08;4.00;;;2.67;;
19653;SDS011;9975;48.046;7.804;2022-08-21T07:00:36;5.60;;;2.40;;
19653;SDS011;9975;48.046;7.804;2022-08-21T07:03:04;3.80;;;3.43;;
19653;SDS011;9975;48.046;7.804;2022-08-21T07:05:30;2.43;;;2.23;;
19653;SDS011;9975;48.046;7.804;2022-08-21T07:07:56;5.80;;;2.90;;
19653;SDS011;9975;48.046;7.804;2022-08-21T07:10:23;2.97;;;2.37;;
19653;SDS011;9975;48.046;7.804;2022-08-21T07:12:49;3.60;;;2.40;;
19653;SDS011;9975;48.046;7.804;2022-08-21T07:15:16;6.33;;;2.73;;
19653;SDS011;9975;48.046;7.804;2022-08-21T07:17:41;8.80;;;2.80;;
19653;SDS011;9975;48.046;7.804;2022-08-21T07:20:07;3.97;;;2.70;;
19653;SDS011;9975;48.046;7.804;2022-08-21T07:22:33;7.10;;;2.97;;
19653;SDS011;9975;48.046;7.804;2022-08-21T07:25:01;2.87;;;2.30;;
19653;SDS011;9975;48.046;7.804;2022-08-21T07:27:29;5.87;;;3.07;;
19653;SDS011;9975;48.046;7.804;2022-08-21T07:29:56;3.00;;;2.37;;
19653;SDS011;9975;48.046;7.804;2022-08-21T07:32:22;6.00;;;2.97;;
19653;SDS011;9975;48.046;7.804;2022-08-21T07:34:47;6.53;;;3.20;;
19653;SDS011;9975;48.046;7.804;2022-08-21T07:37:13;4.43;;;2.40;;
19653;SDS011;9975;48.046;7.804;2022-08-21T07:39:38;3.77;;;2.53;;
19653;SDS011;9975;48.046;7.804;2022-08-21T07:42:04;4.90;;;2.53;;
19653;SDS011;9975;48.046;7.804;2022-08-21T07:44:35;4.77;;;2.50;;
19653;SDS011;9975;48.046;7.804;2022-08-21T07:47:01;3.50;;;2.33;;
19653;SDS011;9975;48.046;7.804;2022-08-21T07:49:27;3.17;;;1.90;;
19653;SDS011;9975;48.046;7.804;2022-08-21T07:51:53;2.27;;;2.00;;
19653;SDS011;9975;48.046;7.804;2022-08-21T07:54:18;4.40;;;2.33;;
19653;SDS011;9975;48.046;7.804;2022-08-21T07:56:44;6.23;;;2.67;;
19653;SDS011;9975;48.046;7.804;2022-08-21T07:59:10;6.50;;;3.27;;
19653;SDS011;9975;48.046;7.804;2022-08-21T08:01:36;5.10;;;2.60;;
19653;SDS011;9975;48.046;7.804;2022-08-21T08:04:02;4.33;;;2.20;;
19653;SDS011;9975;48.046;7.804;2022-08-21T08:06:28;5.00;;;2.53;;
19653;SDS011;9975;48.046;7.804;2022-08-21T08:08:54;4.00;;;2.27;;
19653;SDS011;9975;48.046;7.804;2022-08-21T08:11:19;3.77;;;2.37;;
19653;SDS011;9975;48.046;7.804;2022-08-21T08:13:46;6.93;;;2.43;;
19653;SDS011;9975;48.046;7.804;2022-08-21T08:16:13;3.53;;;2.07;;
19653;SDS011;9975;48.046;7.804;2022-08-21T08:18:40;3.13;;;1.90;;
19653;SDS011;9975;48.046;7.804;2022-08-21T08:21:07;4.60;;;1.90;;
19653;SDS011;9975;48.046;7.804;2022-08-21T08:23:33;2.93;;;1.90;;
19653;SDS011;9975;48.046;7.804;2022-08-21T08:25:59;2.67;;;2.33;;
19653;SDS011;9975;48.046;7.804;2022-08-21T08:28:25;3.80;;;2.90;;
19653;SDS011;9975;48.046;7.804;2022-08-21T08:30:52;3.73;;;2.47;;
19653;SDS011;9975;48.046;7.804;2022-08-21T08:33:17;2.70;;;2.13;;
19653;SDS011;9975;48.046;7.804;2022-08-21T08:35:44;3.80;;;2.77;;
19653;SDS011;9975;48.046;7.804;2022-08-21T08:38:12;3.67;;;2.60;;
19653;SDS011;9975;48.046;7.804;2022-08-21T08:43:42;5.23;;;2.37;;
19653;SDS011;9975;48.046;7.804;2022-08-21T08:46:15;5.23;;;2.47;;
19653;SDS011;9975;48.046;7.804;2022-08-21T08:48:50;2.57;;;2.33;;
19653;SDS011;9975;48.046;7.804;2022-08-21T08:51:18;8.23;;;2.17;;
19653;SDS011;9975;48.046;7.804;2022-08-21T08:53:51;2.83;;;2.23;;
19653;SDS011;9975;48.046;7.804;2022-08-21T08:56:31;6.73;;;2.50;;
19653;SDS011;9975;48.046;7.804;2022-08-21T08:59:01;5.43;;;2.50;;
19653;SDS011;9975;48.046;7.804;2022-08-21T09:01:38;2.20;;;2.00;;
19653;SDS011;9975;48.046;7.804;2022-08-21T09:04:04;3.63;;;2.20;;
19653;SDS011;9975;48.046;7.804;2022-08-21T09:06:45;3.27;;;2.97;;
19653;SDS011;9975;48.046;7.804;2022-08-21T09:26:16;3.13;;;2.63;;
19653;SDS011;9975;48.046;7.804;2022-08-21T09:28:44;6.67;;;2.87;;
19653;SDS011;9975;48.046;7.804;2022-08-21T09:34:02;5.87;;;3.20;;
19653;SDS011;9975;48.046;7.804;2022-08-21T09:36:36;3.20;;;2.13;;
19653;SDS011;9975;48.046;7.804;2022-08-21T09:39:10;3.10;;;2.30;;
19653;SDS011;9975;48.046;7.804;2022-08-21T09:41:37;3.70;;;2.67;;
19653;SDS011;9975;48.046;7.804;2022-08-21T09:44:04;2.73;;;2.30;;
19653;SDS011;9975;48.046;7.804;2022-08-21T09:46:31;3.40;;;2.67;;
19653;SDS011;9975;48.046;7.804;2022-08-21T09:49:00;3.60;;;2.60;;
19653;SDS011;9975;48.046;7.804;2022-08-21T09:51:32;2.80;;;2.40;;
19653;SDS011;9975;48.046;7.804;2022-08-21T09:56:37;4.73;;;2.20;;
19653;SDS011;9975;48.046;7.804;2022-08-21T09:59:40;3.00;;;2.20;;
19653;SDS011;9975;48.046;7.804;2022-08-21T10:02:23;3.90;;;2.07;;
19653;SDS011;9975;48.046;7.804;2022-08-21T10:04:53;6.73;;;2.83;;
19653;SDS011;9975;48.046;7.804;2022-08-21T10:07:21;3.40;;;2.90;;
19653;SDS011;9975;48.046;7.804;2022-08-21T10:09:58;4.80;;;2.90;;
19653;SDS011;9975;48.046;7.804;2022-08-21T10:20:19;3.93;;;2.20;;
19653;SDS011;9975;48.046;7.804;2022-08-21T10:28:35;5.37;;;2.37;;
19653;SDS011;9975;48.046;7.804;2022-08-21T10:31:14;4.13;;;2.47;;
19653;SDS011;9975;48.046;7.804;2022-08-21T10:39:35;4.37;;;2.20;;
19653;SDS011;9975;48.046;7.804;2022-08-21T10:47:28;7.00;;;2.03;;
19653;SDS011;9975;48.046;7.804;2022-08-21T10:55:14;2.50;;;1.80;;
19653;SDS011;9975;48.046;7.804;2022-08-21T11:00:33;3.30;;;1.70;;
19653;SDS011;9975;48.046;7.804;2022-08-21T11:03:23;1.60;;;1.50;;
19653;SDS011;9975;48.046;7.804;2022-08-21T11:08:23;2.03;;;1.70;;
19653;SDS011;9975;48.046;7.804;2022-08-21T11:16:16;2.37;;;1.60;;
19653;SDS011;9975;48.046;7.804;2022-08-21T11:29:49;3.00;;;1.50;;
19653;SDS011;9975;48.046;7.804;2022-08-21T11:43:40;1.60;;;1.40;;
19653;SDS011;9975;48.046;7.804;2022-08-21T11:46:17;2.50;;;1.40;;
19653;SDS011;9975;48.046;7.804;2022-08-21T11:51:42;4.30;;;2.03;;
19653;SDS011;9975;48.046;7.804;2022-08-21T11:54:41;1.80;;;1.30;;
19653;SDS011;9975;48.046;7.804;2022-08-21T11:57:31;5.70;;;1.90;;
19653;SDS011;9975;48.046;7.804;2022-08-21T12:00:01;3.60;;;1.63;;
19653;SDS011;9975;48.046;7.804;2022-08-21T12:02:51;4.57;;;2.03;;
19653;SDS011;9975;48.046;7.804;2022-08-21T12:05:25;2.70;;;1.77;;
19653;SDS011;9975;48.046;7.804;2022-08-21T12:10:36;3.13;;;1.80;;
19653;SDS011;9975;48.046;7.804;2022-08-21T12:13:27;2.93;;;1.50;;
19653;SDS011;9975;48.046;7.804;2022-08-21T12:16:05;2.87;;;1.50;;
19653;SDS011;9975;48.046;7.804;2022-08-21T12:18:32;4.17;;;1.77;;
19653;SDS011;9975;48.046;7.804;2022-08-21T12:26:51;3.83;;;1.83;;
19653;SDS011;9975;48.046;7.804;2022-08-21T12:29:21;5.60;;;1.97;;
19653;SDS011;9975;48.046;7.804;2022-08-21T12:34:35;3.00;;;1.43;;
19653;SDS011;9975;48.046;7.804;2022-08-21T12:37:22;4.67;;;2.23;;
19653;SDS011;9975;48.046;7.804;2022-08-21T12:40:00;2.57;;;2.10;;
19653;SDS011;9975;48.046;7.804;2022-08-21T12:42:38;2.70;;;1.70;;
19653;SDS011;9975;48.046;7.804;2022-08-21T12:45:30;3.17;;;2.13;;
19653;SDS011;9975;48.046;7.804;2022-08-21T12:48:14;2.60;;;1.80;;
19653;SDS011;9975;48.046;7.804;2022-08-21T12:50:55;2.40;;;1.60;;
19653;SDS011;9975;48.046;7.804;2022-08-21T12:56:03;3.77;;;1.93;;
19653;SDS011;9975;48.046;7.804;2022-08-21T12:58:33;4.63;;;2.10;;
19653;SDS011;9975;48.046;7.804;2022-08-21T13:01:04;3.87;;;1.83;;
19653;SDS011;9975;48.046;7.804;2022-08-21T13:03:42;2.30;;;1.97;;
19653;SDS011;9975;48.046;7.804;2022-08-21T13:06:12;2.27;;;1.50;;
19653;SDS011;9975;48.046;7.804;2022-08-21T13:08:42;3.60;;;2.87;;
19653;SDS011;9975;48.046;7.804;2022-08-21T13:11:10;5.97;;;1.80;;
19653;SDS011;9975;48.046;7.804;2022-08-21T13:13:38;2.30;;;1.60;;
19653;SDS011;9975;48.046;7.804;2022-08-21T13:16:05;3.37;;;1.87;;
19653;SDS011;9975;48.046;7.804;2022-08-21T13:18:34;2.07;;;1.70;;
19653;SDS011;9975;48.046;7.804;2022-08-21T13:21:10;5.00;;;1.80;;
19653;SDS011;9975;48.046;7.804;2022-08-21T13:23:37;3.47;;;1.70;;
19653;SDS011;9975;48.046;7.804;2022-08-21T13:26:13;4.13;;;2.20;;
19653;SDS011;9975;48.046;7.804;2022-08-21T13:28:40;6.67;;;2.37;;
19653;SDS011;9975;48.046;7.804;2022-08-21T13:31:06;2.20;;;2.00;;
19653;SDS011;9975;48.046;7.804;2022-08-21T13:33:35;3.20;;;2.30;;
19653;SDS011;9975;48.046;7.804;2022-08-21T13:36:10;3.33;;;2.10;;
19653;SDS011;9975;48.046;7.804;2022-08-21T13:38:42;2.03;;;1.50;;
19653;SDS011;9975;48.046;7.804;2022-08-21T13:43:43;4.00;;;2.10;;
19653;SDS011;9975;48.046;7.804;2022-08-21T13:46:11;3.53;;;1.90;;
19653;SDS011;9975;48.046;7.804;2022-08-21T13:48:40;1.77;;;1.40;;
19653;SDS011;9975;48.046;7.804;2022-08-21T13:51:07;3.03;;;1.90;;
19653;SDS011;9975;48.046;7.804;2022-08-21T13:56:05;2.30;;;2.03;;
19653;SDS011;9975;48.046;7.804;2022-08-21T14:01:17;3.80;;;2.00;;
19653;SDS011;9975;48.046;7.804;2022-08-21T14:03:50;2.97;;;2.10;;
19653;SDS011;9975;48.046;7.804;2022-08-21T14:06:20;1.83;;;1.53;;
19653;SDS011;9975;48.046;7.804;2022-08-21T14:08:49;3.40;;;2.13;;
19653;SDS011;9975;48.046;7.804;2022-08-21T14:11:24;2.80;;;1.97;;
19653;SDS011;9975;48.046;7.804;2022-08-21T14:14:16;2.17;;;1.83;;
19653;SDS011;9975;48.046;7.804;2022-08-21T14:16:56;3.90;;;2.03;;
19653;SDS011;9975;48.046;7.804;2022-08-21T14:19:25;2.40;;;2.07;;
19653;SDS011;9975;48.046;7.804;2022-08-21T14:27:36;6.40;;;1.67;;
19653;SDS011;9975;48.046;7.804;2022-08-21T14:30:30;4.63;;;2.40;;
19653;SDS011;9975;48.046;7.804;2022-08-21T14:32:58;2.00;;;1.50;;
19653;SDS011;9975;48.046;7.804;2022-08-21T14:35:24;2.77;;;1.60;;
19653;SDS011;9975;48.046;7.804;2022-08-21T14:37:51;2.23;;;1.57;;
19653;SDS011;9975;48.046;7.804;2022-08-21T14:40:17;2.00;;;1.90;;
19653;SDS011;9975;48.046;7.804;2022-08-21T14:42:44;1.73;;;1.50;;
19653;SDS011;9975;48.046;7.804;2022-08-21T14:45:25;1.73;;;1.63;;
19653;SDS011;9975;48.046;7.804;2022-08-21T14:47:53;1.73;;;1.60;;
19653;SDS011;9975;48.046;7.804;2022-08-21T14:50:20;3.70;;;1.93;;
19653;SDS011;9975;48.046;7.804;2022-08-21T14:52:45;2.83;;;1.43;;
19653;SDS011;9975;48.046;7.804;2022-08-21T14:55:11;2.17;;;1.77;;
19653;SDS011;9975;48.046;7.804;2022-08-21T14:57:45;3.53;;;2.10;;
19653;SDS011;9975;48.046;7.804;2022-08-21T15:00:13;3.03;;;2.00;;
19653;SDS011;9975;48.046;7.804;2022-08-21T15:02:41;2.20;;;1.90;;
19653;SDS011;9975;48.046;7.804;2022-08-21T15:05:08;2.57;;;1.83;;
19653;SDS011;9975;48.046;7.804;2022-08-21T15:07:34;2.37;;;1.90;;
19653;SDS011;9975;48.046;7.804;2022-08-21T15:10:00;1.90;;;1.63;;
19653;SDS011;9975;48.046;7.804;2022-08-21T15:12:26;2.30;;;1.63;;
19653;SDS011;9975;48.046;7.804;2022-08-21T15:14:52;2.90;;;2.03;;
19653;SDS011;9975;48.046;7.804;2022-08-21T15:17:18;6.03;;;1.97;;
19653;SDS011;9975;48.046;7.804;2022-08-21T15:19:44;2.00;;;1.60;;
19653;SDS011;9975;48.046;7.804;2022-08-21T15:22:10;2.10;;;1.90;;
19653;SDS011;9975;48.046;7.804;2022-08-21T15:24:35;3.03;;;2.30;;
19653;SDS011;9975;48.046;7.804;2022-08-21T15:27:01;2.73;;;1.63;;
19653;SDS011;9975;48.046;7.804;2022-08-21T15:29:29;2.47;;;1.40;;
19653;SDS011;9975;48.046;7.804;2022-08-21T15:31:57;2.27;;;2.07;;
19653;SDS011;9975;48.046;7.804;2022-08-21T15:34:28;1.90;;;1.70;;
19653;SDS011;9975;48.046;7.804;2022-08-21T15:39:41;4.03;;;1.73;;
19653;SDS011;9975;48.046;7.804;2022-08-21T15:42:07;2.73;;;2.03;;
19653;SDS011;9975;48.046;7.804;2022-08-21T15:44:34;3.70;;;1.93;;
19653;SDS011;9975;48.046;7.804;2022-08-21T15:46:59;2.33;;;1.53;;
19653;SDS011;9975;48.046;7.804;2022-08-21T15:49:25;4.00;;;1.87;;
19653;SDS011;9975;48.046;7.804;2022-08-21T15:51:51;2.60;;;1.80;;
19653;SDS011;9975;48.046;7.804;2022-08-21T15:54:17;2.60;;;1.93;;
19653;SDS011;9975;48.046;7.804;2022-08-21T15:56:53;2.83;;;2.00;;
19653;SDS011;9975;48.046;7.804;2022-08-21T15:59:19;1.73;;;1.60;;
19653;SDS011;9975;48.046;7.804;2022-08-21T16:01:47;2.83;;;1.60;;
19653;SDS011;9975;48.046;7.804;2022-08-21T16:04:20;2.53;;;1.37;;
19653;SDS011;9975;48.046;7.804;2022-08-21T16:06:51;2.13;;;1.40;;
19653;SDS011;9975;48.046;7.804;2022-08-21T16:09:17;2.43;;;2.23;;
19653;SDS011;9975;48.046;7.804;2022-08-21T16:11:43;2.90;;;1.80;;
19653;SDS011;9975;48.046;7.804;2022-08-21T16:14:10;3.20;;;1.53;;
19653;SDS011;9975;48.046;7.804;2022-08-21T16:16:37;3.10;;;1.80;;
19653;SDS011;9975;48.046;7.804;2022-08-21T16:19:03;2.90;;;1.80;;
19653;SDS011;9975;48.046;7.804;2022-08-21T16:21:31;1.67;;;1.57;;
19653;SDS011;9975;48.046;7.804;2022-08-21T16:23:57;1.70;;;1.60;;
19653;SDS011;9975;48.046;7.804;2022-08-21T16:26:22;4.73;;;1.40;;
19653;SDS011;9975;48.046;7.804;2022-08-21T16:28:48;1.60;;;1.50;;
19653;SDS011;9975;48.046;7.804;2022-08-21T16:31:17;1.90;;;1.67;;
19653;SDS011;9975;48.046;7.804;2022-08-21T16:33:43;1.30;;;1.20;;
19653;SDS011;9975;48.046;7.804;2022-08-21T16:36:13;3.27;;;1.63;;
19653;SDS011;9975;48.046;7.804;2022-08-21T16:38:39;2.30;;;1.60;;
19653;SDS011;9975;48.046;7.804;2022-08-21T16:41:08;1.70;;;1.40;;
19653;SDS011;9975;48.046;7.804;2022-08-21T16:43:36;1.50;;;1.40;;
19653;SDS011;9975;48.046;7.804;2022-08-21T16:46:04;2.33;;;1.57;;
19653;SDS011;9975;48.046;7.804;2022-08-21T16:48:29;2.13;;;1.30;;
19653;SDS011;9975;48.046;7.804;2022-08-21T16:50:55;2.00;;;1.60;;
19653;SDS011;9975;48.046;7.804;2022-08-21T16:53:22;2.40;;;1.30;;
19653;SDS011;9975;48.046;7.804;2022-08-21T16:55:49;2.10;;;1.43;;
19653;SDS011;9975;48.046;7.804;2022-08-21T16:58:18;1.80;;;1.70;;
19653;SDS011;9975;48.046;7.804;2022-08-21T17:00:50;2.30;;;1.50;;
19653;SDS011;9975;48.046;7.804;2022-08-21T17:03:16;3.90;;;2.27;;
19653;SDS011;9975;48.046;7.804;2022-08-21T17:05:45;2.30;;;1.50;;
19653;SDS011;9975;48.046;7.804;2022-08-21T17:08:17;1.47;;;1.27;;
19653;SDS011;9975;48.046;7.804;2022-08-21T17:10:44;3.83;;;1.27;;
19653;SDS011;9975;48.046;7.804;2022-08-21T17:13:12;2.20;;;1.50;;
19653;SDS011;9975;48.046;7.804;2022-08-21T17:15:38;2.07;;;1.87;;
19653;SDS011;9975;48.046;7.804;2022-08-21T17:18:04;3.07;;;1.63;;
19653;SDS011;9975;48.046;7.804;2022-08-21T17:20:33;4.70;;;1.50;;
19653;SDS011;9975;48.046;7.804;2022-08-21T17:22:59;1.83;;;1.40;;
19653;SDS011;9975;48.046;7.804;2022-08-21T17:25:24;2.70;;;1.60;;
19653;SDS011;9975;48.046;7.804;2022-08-21T17:27:51;1.70;;;1.30;;
19653;SDS011;9975;48.046;7.804;2022-08-21T17:30:18;2.33;;;1.30;;
19653;SDS011;9975;48.046;7.804;2022-08-21T17:32:44;1.90;;;1.63;;
19653;SDS011;9975;48.046;7.804;2022-08-21T17:35:12;2.63;;;1.50;;
19653;SDS011;9975;48.046;7.804;2022-08-21T17:37:38;3.33;;;1.70;;
19653;SDS011;9975;48.046;7.804;2022-08-21T17:40:05;1.90;;;1.40;;
19653;SDS011;9975;48.046;7.804;2022-08-21T17:42:34;1.87;;;1.40;;
19653;SDS011;9975;48.046;7.804;2022-08-21T17:45:01;1.63;;;1.37;;
19653;SDS011;9975;48.046;7.804;2022-08-21T17:47:27;3.00;;;1.57;;
19653;SDS011;9975;48.046;7.804;2022-08-21T17:49:53;1.50;;;1.40;;
19653;SDS011;9975;48.046;7.804;2022-08-21T17:52:19;1.83;;;1.30;;
19653;SDS011;9975;48.046;7.804;2022-08-21T17:54:45;5.77;;;1.97;;
19653;SDS011;9975;48.046;7.804;2022-08-21T17:57:17;2.90;;;1.77;;
19653;SDS011;9975;48.046;7.804;2022-08-21T17:59:44;5.67;;;1.70;;
19653;SDS011;9975;48.046;7.804;2022-08-21T18:02:10;4.00;;;1.70;;
19653;SDS011;9975;48.046;7.804;2022-08-21T18:04:37;2.40;;;1.50;;
19653;SDS011;9975;48.046;7.804;2022-08-21T18:07:03;1.60;;;1.47;;
19653;SDS011;9975;48.046;7.804;2022-08-21T18:09:28;1.90;;;1.27;;
19653;SDS011;9975;48.046;7.804;2022-08-21T18:11:55;1.60;;;1.50;;
19653;SDS011;9975;48.046;7.804;2022-08-21T18:14:24;2.30;;;1.60;;
19653;SDS011;9975;48.046;7.804;2022-08-21T18:16:55;1.90;;;1.70;;
19653;SDS011;9975;48.046;7.804;2022-08-21T18:22:44;4.27;;;2.73;;
19653;SDS011;9975;48.046;7.804;2022-08-21T18:25:11;2.10;;;1.90;;
19653;SDS011;9975;48.046;7.804;2022-08-21T18:27:37;3.30;;;2.20;;
19653;SDS011;9975;48.046;7.804;2022-08-21T18:30:03;3.07;;;1.67;;
19653;SDS011;9975;48.046;7.804;2022-08-21T18:32:29;2.93;;;1.63;;
19653;SDS011;9975;48.046;7.804;2022-08-21T18:34:55;4.00;;;1.57;;
19653;SDS011;9975;48.046;7.804;2022-08-21T18:37:21;2.87;;;1.60;;
19653;SDS011;9975;48.046;7.804;2022-08-21T18:39:47;3.17;;;1.73;;
19653;SDS011;9975;48.046;7.804;2022-08-21T18:42:14;2.67;;;1.40;;
19653;SDS011;9975;48.046;7.804;2022-08-21T18:44:44;2.20;;;1.40;;
19653;SDS011;9975;48.046;7.804;2022-08-21T18:47:16;3.80;;;2.30;;
19653;SDS011;9975;48.046;7.804;2022-08-21T18:49:47;3.20;;;1.50;;
19653;SDS011;9975;48.046;7.804;2022-08-21T18:52:14;1.97;;;1.77;;
19653;SDS011;9975;48.046;7.804;2022-08-21T18:54:39;3.63;;;2.33;;
19653;SDS011;9975;48.046;7.804;2022-08-21T18:57:05;2.20;;;1.37;;
19653;SDS011;9975;48.046;7.804;2022-08-21T18:59:32;2.60;;;1.17;;
19653;SDS011;9975;48.046;7.804;2022-08-21T19:01:58;2.23;;;1.63;;
19653;SDS011;9975;48.046;7.804;2022-08-21T19:04:24;4.40;;;2.23;;
19653;SDS011;9975;48.046;7.804;2022-08-21T19:06:50;5.73;;;1.97;;
19653;SDS011;9975;48.046;7.804;2022-08-21T19:09:16;2.80;;;1.60;;
19653;SDS011;9975;48.046;7.804;2022-08-21T19:11:44;3.80;;;1.63;;
19653;SDS011;9975;48.046;7.804;2022-08-21T19:14:11;6.07;;;1.90;;
19653;SDS011;9975;48.046;7.804;2022-08-21T19:16:39;3.47;;;2.03;;
19653;SDS011;9975;48.046;7.804;2022-08-21T19:19:06;3.13;;;1.30;;